createdAt,value
2023-02-17T00:00:59.350Z,94.32
2023-02-17T00:02:02.737Z,97.78
2023-02-17T00:03:06.088Z,105.03
2023-02-17T00:04:09.054Z,99.57
2023-02-17T00:05:11.101Z,104.45
2023-02-17T00:06:14.035Z,106.85
2023-02-17T00:07:16.183Z,105.60
2023-02-17T00:08:19.572Z,106.43
2023-02-17T00:09:21.552Z,118.40
2023-02-17T00:10:24.596Z,124.70
2023-02-17T00:11:28.344Z,114.82
2023-02-17T00:12:31.250Z,106.80
2023-02-17T00:13:33.509Z,102.32
2023-02-17T00:14:36.779Z,105.05
2023-02-17T00:15:39.012Z,114.35
2023-02-17T00:16:42.092Z,104.20
2023-02-17T00:17:44.514Z,104.53
2023-02-17T00:18:49.793Z,105.00
2023-02-17T00:19:53.968Z,99.75
2023-02-17T00:20:56.964Z,108.80
2023-02-17T00:22:00.430Z,99.57
2023-02-17T00:23:03.475Z,105.70
2023-02-17T00:24:07.821Z,105.13
2023-02-17T00:25:09.836Z,114.20
2023-02-17T00:26:13.204Z,104.93
2023-02-17T00:27:15.847Z,96.25
2023-02-17T00:28:18.844Z,94.32
2023-02-17T00:29:21.302Z,112.93
2023-02-17T00:30:24.737Z,110.60
2023-02-17T00:31:28.417Z,108.88
2023-02-17T00:32:31.500Z,113.07
2023-02-17T00:33:33.717Z,100.28
2023-02-17T00:34:38.049Z,109.35
2023-02-17T00:35:41.736Z,112.68
2023-02-17T00:36:45.149Z,114.00
2023-02-17T00:37:47.074Z,125.15
2023-02-17T00:38:50.507Z,122.80
2023-02-17T00:39:52.627Z,118.40
2023-02-17T00:40:55.584Z,122.50
2023-02-17T00:41:59.156Z,130.35
2023-02-17T00:43:05.190Z,125.57
2023-02-17T00:44:08.224Z,118.47
2023-02-17T00:45:10.459Z,124.28
2023-02-17T00:46:13.736Z,126.97
2023-02-17T00:47:15.814Z,139.85
2023-02-17T00:48:18.952Z,140.35
2023-02-17T00:49:22.830Z,132.13
2023-02-17T00:50:27.366Z,125.90
2023-02-17T00:51:29.546Z,137.02
2023-02-17T00:52:32.604Z,126.72
2023-02-17T00:53:34.729Z,135.75
2023-02-17T00:54:39.047Z,135.77
2023-02-17T00:55:41.630Z,144.80
2023-02-17T00:56:45.156Z,147.82
2023-02-17T00:57:47.105Z,153.35
2023-02-17T00:58:50.179Z,136.00
2023-02-17T00:59:52.206Z,132.95
2023-02-17T01:00:57.257Z,128.82
2023-02-17T01:01:59.730Z,134.80
2023-02-17T01:03:02.628Z,123.22
2023-02-17T01:04:05.342Z,141.63
2023-02-17T01:05:09.064Z,130.07
2023-02-17T01:06:19.395Z,131.35
2023-02-17T01:07:22.267Z,138.27
2023-02-17T01:08:25.445Z,130.35
2023-02-17T01:09:28.390Z,136.57
2023-02-17T01:10:30.288Z,121.53
2023-02-17T01:11:34.636Z,116.63
2023-02-17T01:12:38.111Z,129.32
2023-02-17T01:13:41.114Z,128.65
2023-02-17T01:14:44.273Z,123.93
2023-02-17T01:15:49.043Z,115.13
2023-02-17T01:16:52.068Z,142.60
2023-02-17T01:17:55.822Z,144.05
2023-02-17T01:18:59.268Z,138.82
2023-02-17T01:20:01.369Z,148.60
2023-02-17T01:21:04.996Z,144.27
2023-02-17T01:22:12.245Z,145.38
2023-02-17T01:23:15.101Z,130.30
2023-02-17T01:24:18.289Z,121.05
2023-02-17T01:25:20.433Z,118.45
2023-02-17T01:26:26.265Z,121.82
2023-02-17T01:27:28.726Z,116.82
2023-02-17T01:28:32.456Z,116.97
2023-02-17T01:29:34.537Z,126.57
2023-02-17T01:30:39.833Z,137.95
2023-02-17T01:31:42.013Z,115.00
2023-02-17T01:32:47.849Z,121.25
2023-02-17T01:33:50.500Z,122.63
2023-02-17T01:34:53.507Z,125.45
2023-02-17T01:35:55.669Z,125.30
2023-02-17T01:36:58.764Z,123.13
2023-02-17T01:38:02.371Z,128.43
2023-02-17T01:39:05.825Z,136.45
2023-02-17T01:40:09.204Z,126.30
2023-02-17T01:41:13.097Z,119.60
2023-02-17T01:42:16.220Z,116.97
2023-02-17T01:43:19.642Z,119.43
2023-02-17T01:44:23.280Z,123.63
2023-02-17T01:45:46.442Z,119.78
2023-02-17T01:46:49.766Z,119.30
2023-02-17T01:47:55.869Z,117.22
2023-02-17T01:48:58.056Z,114.15
2023-02-17T01:50:01.506Z,130.07
2023-02-17T01:51:05.792Z,120.75
2023-02-17T01:52:13.104Z,110.68
2023-02-17T01:53:19.957Z,119.57
2023-02-17T01:54:27.372Z,113.63
2023-02-17T01:55:30.114Z,122.45
2023-02-17T01:56:34.719Z,110.07
2023-02-17T01:57:39.459Z,117.60
2023-02-17T01:58:44.690Z,111.20
2023-02-17T01:59:47.522Z,116.35
2023-02-17T02:00:51.244Z,111.13
2023-02-17T02:01:55.600Z,108.95
2023-02-17T02:02:59.642Z,118.75
2023-02-17T02:04:04.445Z,114.65
2023-02-17T02:05:07.474Z,108.53
2023-02-17T02:06:13.557Z,117.05
2023-02-17T02:07:19.348Z,123.53
2023-02-17T02:08:22.812Z,118.88
2023-02-17T02:09:29.436Z,115.80
2023-02-17T02:10:33.568Z,117.35
2023-02-17T02:11:37.106Z,121.72
2023-02-17T02:12:41.845Z,130.10
2023-02-17T02:13:44.927Z,120.55
2023-02-17T02:14:47.370Z,119.97
2023-02-17T02:15:59.187Z,108.63
2023-02-17T02:17:07.590Z,119.93
2023-02-17T02:18:20.605Z,132.55
2023-02-17T02:19:40.324Z,118.22
2023-02-17T02:21:08.896Z,109.82
2023-02-17T02:22:24.671Z,115.60
2023-02-17T02:23:51.454Z,113.15
2023-02-17T02:24:59.382Z,106.95
2023-02-17T02:26:20.206Z,117.28
2023-02-17T02:27:33.279Z,112.00
2023-02-17T02:28:50.671Z,112.28
2023-02-17T02:30:25.773Z,115.35
2023-02-17T02:31:40.473Z,111.45
2023-02-17T02:32:50.759Z,113.95
2023-02-17T02:33:55.443Z,110.60
2023-02-17T02:35:02.689Z,122.28
2023-02-17T02:36:11.617Z,119.85
2023-02-17T02:37:17.318Z,112.22
2023-02-17T02:38:25.803Z,126.03
2023-02-17T02:39:30.412Z,113.25
2023-02-17T02:40:35.837Z,127.13
2023-02-17T02:41:41.040Z,111.47
2023-02-17T02:42:44.043Z,113.75
2023-02-17T02:43:48.618Z,104.55
2023-02-17T02:44:50.882Z,116.53
2023-02-17T02:45:53.883Z,109.88
2023-02-17T02:46:57.517Z,113.60
2023-02-17T02:48:02.203Z,112.28
2023-02-17T02:49:06.481Z,113.03
2023-02-17T02:50:11.732Z,120.00
2023-02-17T02:51:21.851Z,128.93
2023-02-17T02:52:28.442Z,127.55
2023-02-17T02:53:49.695Z,130.02
2023-02-17T02:54:58.832Z,105.90
2023-02-17T02:56:06.552Z,120.53
2023-02-17T02:57:36.301Z,107.38
2023-02-17T02:58:49.284Z,115.85
2023-02-17T03:00:05.809Z,104.60
2023-02-17T03:01:14.289Z,108.45
2023-02-17T03:02:24.771Z,109.18
2023-02-17T03:03:34.276Z,113.97
2023-02-17T03:04:39.881Z,95.43
2023-02-17T03:05:47.532Z,98.65
2023-02-17T03:06:54.213Z,115.45
2023-02-17T03:08:00.302Z,104.15
2023-02-17T03:09:06.901Z,96.35
2023-02-17T03:10:09.629Z,92.25
2023-02-17T03:11:12.902Z,100.05
2023-02-17T03:12:15.313Z,99.88
2023-02-17T03:13:19.507Z,110.60
2023-02-17T03:14:22.306Z,97.97
2023-02-17T03:15:30.460Z,105.40
2023-02-17T03:16:33.168Z,98.70
2023-02-17T03:17:36.701Z,100.70
2023-02-17T03:18:40.421Z,93.45
2023-02-17T03:19:45.576Z,124.18
2023-02-17T03:20:51.832Z,103.82
2023-02-17T03:21:59.172Z,112.60
2023-02-17T03:23:01.182Z,101.43
2023-02-17T03:24:05.604Z,101.80
2023-02-17T03:25:08.239Z,100.05
2023-02-17T03:26:11.326Z,105.15
2023-02-17T03:27:13.311Z,109.80
2023-02-17T03:28:16.667Z,111.30
2023-02-17T03:29:18.954Z,117.72
2023-02-17T03:30:22.280Z,115.43
2023-02-17T03:31:24.556Z,100.60
2023-02-17T03:32:27.586Z,108.13
2023-02-17T03:33:29.642Z,110.13
2023-02-17T03:34:34.153Z,103.72
2023-02-17T03:35:36.190Z,102.30
2023-02-17T03:36:39.272Z,120.47
2023-02-17T03:37:41.378Z,113.50
2023-02-17T03:38:44.469Z,110.55
2023-02-17T03:39:46.478Z,108.80
2023-02-17T03:40:49.843Z,102.35
2023-02-17T03:41:52.406Z,108.65
2023-02-17T03:42:55.483Z,99.65
2023-02-17T03:43:57.741Z,112.25
2023-02-17T03:45:00.778Z,103.28
2023-02-17T03:46:03.247Z,101.10
2023-02-17T03:47:06.738Z,102.47
2023-02-17T03:48:08.835Z,106.38
2023-02-17T03:49:13.063Z,109.93
2023-02-17T03:50:16.726Z,113.28
2023-02-17T03:51:21.617Z,109.80
2023-02-17T03:52:23.654Z,116.53
2023-02-17T03:53:26.734Z,122.22
2023-02-17T03:54:28.737Z,108.18
2023-02-17T03:55:31.778Z,85.13
2023-02-17T03:56:33.831Z,88.25
2023-02-17T03:57:36.873Z,83.38
2023-02-17T03:58:39.681Z,84.53
2023-02-17T03:59:43.113Z,84.35
2023-02-17T04:00:45.115Z,87.65
2023-02-17T04:01:48.134Z,90.63
2023-02-17T04:02:50.488Z,84.85
2023-02-17T04:03:53.583Z,90.05
2023-02-17T04:04:55.590Z,84.47
2023-02-17T04:06:00.385Z,93.22
2023-02-17T04:07:03.302Z,95.32
2023-02-17T04:08:06.587Z,90.88
2023-02-17T04:09:08.685Z,89.32
2023-02-17T04:10:12.291Z,92.88
2023-02-17T04:11:14.506Z,92.53
2023-02-17T04:12:17.588Z,91.07
2023-02-17T04:13:19.602Z,92.32
2023-02-17T04:14:22.968Z,79.03
2023-02-17T04:15:25.411Z,85.85
2023-02-17T04:16:28.422Z,86.50
2023-02-17T04:17:30.346Z,80.25
2023-02-17T04:18:33.768Z,77.38
2023-02-17T04:19:36.884Z,78.07
2023-02-17T04:20:38.899Z,83.25
2023-02-17T04:21:43.356Z,87.15
2023-02-17T04:22:46.415Z,88.90
2023-02-17T04:23:49.527Z,91.60
2023-02-17T04:24:51.771Z,78.25
2023-02-17T04:25:54.789Z,81.10
2023-02-17T04:26:57.711Z,70.43
2023-02-17T04:27:59.807Z,78.50
2023-02-17T04:29:04.862Z,89.55
2023-02-17T04:30:08.102Z,75.78
2023-02-17T04:31:11.329Z,77.05
2023-02-17T04:32:13.490Z,73.20
2023-02-17T04:33:17.309Z,82.28
2023-02-17T04:34:19.436Z,75.20
2023-02-17T04:35:22.591Z,79.35
2023-02-17T04:36:26.277Z,70.15
2023-02-17T04:37:29.775Z,76.28
2023-02-17T04:38:33.874Z,79.63
2023-02-17T04:39:35.901Z,76.68
2023-02-17T04:40:39.584Z,68.40
2023-02-17T04:41:42.770Z,72.47
2023-02-17T04:42:44.871Z,70.55
2023-02-17T04:43:48.017Z,73.65
2023-02-17T04:44:50.100Z,65.80
2023-02-17T04:45:53.223Z,67.55
2023-02-17T04:46:55.793Z,64.57
2023-02-17T04:47:58.803Z,67.10
2023-02-17T04:49:00.839Z,59.35
2023-02-17T04:50:04.912Z,64.43
2023-02-17T04:51:07.043Z,57.13
2023-02-17T04:52:10.013Z,61.10
2023-02-17T04:53:14.118Z,57.20
2023-02-17T04:54:17.383Z,60.97
2023-02-17T04:55:19.751Z,55.33
2023-02-17T04:56:23.295Z,54.90
2023-02-17T04:57:25.461Z,59.70
2023-02-17T04:58:28.549Z,61.55
2023-02-17T04:59:31.038Z,58.53
2023-02-17T05:00:34.035Z,56.58
2023-02-17T05:01:36.167Z,57.28
2023-02-17T05:02:39.323Z,56.65
2023-02-17T05:03:42.053Z,58.42
2023-02-17T05:04:46.044Z,59.75
2023-02-17T05:05:48.224Z,55.55
2023-02-17T05:06:51.315Z,55.67
2023-02-17T05:07:53.434Z,57.53
2023-02-17T05:08:58.299Z,54.25
2023-02-17T05:10:00.434Z,55.88
2023-02-17T05:11:03.432Z,53.08
2023-02-17T05:12:06.522Z,54.05
2023-02-17T05:13:09.612Z,51.63
2023-02-17T05:14:11.690Z,49.20
2023-02-17T05:15:14.948Z,52.00
2023-02-17T05:16:17.070Z,52.35
2023-02-17T05:17:20.359Z,55.40
2023-02-17T05:18:23.693Z,50.47
2023-02-17T05:19:25.802Z,48.80
2023-02-17T05:20:28.939Z,53.53
2023-02-17T05:21:31.136Z,49.75
2023-02-17T05:22:34.231Z,44.65
2023-02-17T05:23:41.159Z,45.92
2023-02-17T05:24:45.716Z,50.03
2023-02-17T05:25:47.716Z,45.42
2023-02-17T05:26:50.802Z,47.03
2023-02-17T05:27:53.077Z,43.20
2023-02-17T05:28:56.096Z,47.35
2023-02-17T05:29:58.219Z,44.65
2023-02-17T05:31:01.860Z,43.85
2023-02-17T05:32:03.957Z,43.13
2023-02-17T05:33:07.006Z,45.75
2023-02-17T05:34:27.671Z,46.95
2023-02-17T05:35:30.822Z,43.15
2023-02-17T05:36:32.832Z,44.47
2023-02-17T05:37:35.925Z,43.00
2023-02-17T05:38:40.187Z,46.78
2023-02-17T05:39:43.216Z,42.78
2023-02-17T05:40:46.732Z,51.65
2023-02-17T05:41:49.738Z,42.53
2023-02-17T05:42:51.827Z,42.90
2023-02-17T05:43:55.472Z,46.85
2023-02-17T05:44:57.561Z,43.30
2023-02-17T05:46:03.467Z,41.33
2023-02-17T05:47:05.657Z,43.72
2023-02-17T05:48:08.634Z,50.00
2023-02-17T05:49:10.737Z,44.55
2023-02-17T05:50:13.809Z,46.53
2023-02-17T05:51:17.300Z,45.22
2023-02-17T05:52:20.621Z,42.13
2023-02-17T05:53:22.832Z,44.80
2023-02-17T05:54:25.894Z,43.60
2023-02-17T05:55:28.981Z,42.17
2023-02-17T05:56:33.150Z,45.42
2023-02-17T05:57:36.159Z,46.67
2023-02-17T05:58:38.166Z,44.33
2023-02-17T05:59:41.432Z,50.28
2023-02-17T06:00:43.470Z,49.45
2023-02-17T06:01:46.467Z,43.20
2023-02-17T06:02:48.586Z,39.13
2023-02-17T06:03:51.530Z,43.42
2023-02-17T06:04:53.714Z,43.60
2023-02-17T06:05:56.764Z,42.58
2023-02-17T06:06:58.765Z,40.55
2023-02-17T06:08:01.837Z,42.53
2023-02-17T06:09:04.044Z,38.47
2023-02-17T06:10:08.726Z,38.03
2023-02-17T06:11:10.769Z,47.35
2023-02-17T06:12:15.411Z,43.85
2023-02-17T06:13:17.485Z,43.13
2023-02-17T06:14:20.450Z,39.78
2023-02-17T06:15:23.172Z,42.47
2023-02-17T06:16:26.321Z,48.45
2023-02-17T06:17:28.358Z,51.38
2023-02-17T06:18:31.545Z,55.15
2023-02-17T06:19:34.458Z,52.08
2023-02-17T06:20:36.491Z,48.95
2023-02-17T06:21:39.552Z,49.85
2023-02-17T06:22:42.873Z,54.60
2023-02-17T06:23:44.941Z,50.85
2023-02-17T06:24:48.194Z,58.55
2023-02-17T06:25:50.678Z,49.92
2023-02-17T06:26:53.681Z,51.58
2023-02-17T06:27:57.672Z,54.53
2023-02-17T06:29:00.712Z,50.28
2023-02-17T06:30:03.850Z,50.40
2023-02-17T06:31:07.445Z,53.85
2023-02-17T06:32:09.618Z,54.08
2023-02-17T06:33:12.727Z,51.53
2023-02-17T06:34:14.822Z,48.13
2023-02-17T06:35:18.107Z,43.75
2023-02-17T06:36:20.363Z,52.10
2023-02-17T06:37:24.086Z,47.72
2023-02-17T06:38:26.084Z,49.03
2023-02-17T06:39:28.997Z,46.22
2023-02-17T06:40:31.119Z,47.53
2023-02-17T06:41:34.148Z,49.67
2023-02-17T06:42:36.282Z,49.22
2023-02-17T06:43:40.655Z,49.45
2023-02-17T06:44:42.664Z,44.13
2023-02-17T06:45:45.726Z,48.00
2023-02-17T06:46:49.021Z,49.95
2023-02-17T06:47:50.932Z,46.53
2023-02-17T06:48:53.845Z,52.45
2023-02-17T06:49:57.330Z,49.15
2023-02-17T06:50:59.700Z,55.05
2023-02-17T06:52:03.076Z,55.30
2023-02-17T06:53:05.532Z,55.15
2023-02-17T06:54:08.278Z,49.58
2023-02-17T06:55:11.495Z,50.20
2023-02-17T06:56:14.328Z,51.58
2023-02-17T06:57:16.592Z,54.65
2023-02-17T06:58:19.771Z,49.00
2023-02-17T06:59:23.043Z,51.47
2023-02-17T07:00:27.013Z,49.17
2023-02-17T07:01:28.750Z,45.35
2023-02-17T07:02:31.718Z,48.13
2023-02-17T07:03:33.600Z,44.53
2023-02-17T07:04:36.346Z,51.45
2023-02-17T07:05:40.206Z,45.95
2023-02-17T07:06:42.659Z,45.85
2023-02-17T07:07:45.498Z,42.83
2023-02-17T07:08:47.433Z,39.55
2023-02-17T07:09:50.169Z,43.65
2023-02-17T07:10:52.242Z,41.53
2023-02-17T07:11:55.055Z,42.85
2023-02-17T07:12:56.916Z,40.97
2023-02-17T07:14:00.191Z,37.67
2023-02-17T07:15:03.542Z,40.25
2023-02-17T07:16:07.094Z,37.75
2023-02-17T07:17:09.034Z,39.70
2023-02-17T07:18:11.988Z,36.90
2023-02-17T07:19:13.829Z,39.38
2023-02-17T07:20:16.670Z,36.42
2023-02-17T07:21:18.685Z,38.15
2023-02-17T07:22:21.597Z,34.08
2023-02-17T07:23:24.418Z,36.50
2023-02-17T07:24:45.713Z,36.80
2023-02-17T07:25:48.557Z,36.53
2023-02-17T07:26:50.330Z,34.13
2023-02-17T07:27:53.295Z,40.47
2023-02-17T07:28:55.175Z,39.40
2023-02-17T07:29:57.955Z,35.13
2023-02-17T07:31:07.573Z,36.08
2023-02-17T07:32:09.432Z,35.83
2023-02-17T07:33:12.420Z,38.88
2023-02-17T07:34:14.592Z,34.58
2023-02-17T07:35:17.874Z,36.20
2023-02-17T07:36:19.695Z,39.33
2023-02-17T07:37:22.479Z,37.50
2023-02-17T07:38:24.274Z,35.58
2023-02-17T07:39:27.432Z,36.05
2023-02-17T07:40:29.513Z,31.48
2023-02-17T07:41:33.586Z,33.60
2023-02-17T07:42:44.125Z,34.95
2023-02-17T07:43:47.500Z,40.80
2023-02-17T07:44:52.401Z,31.38
2023-02-17T07:45:54.630Z,30.77
2023-02-17T07:46:59.205Z,33.55
2023-02-17T07:48:00.966Z,33.88
2023-02-17T07:49:03.895Z,33.72
2023-02-17T07:50:07.251Z,32.72
2023-02-17T07:51:11.870Z,32.47
2023-02-17T07:52:13.655Z,38.17
2023-02-17T07:53:16.428Z,39.90
2023-02-17T07:54:19.069Z,31.45
2023-02-17T07:55:22.222Z,33.67
2023-02-17T07:56:24.672Z,30.55
2023-02-17T07:57:27.391Z,35.20
2023-02-17T07:58:29.211Z,33.83
2023-02-17T07:59:32.119Z,32.45
2023-02-17T08:00:34.079Z,30.92
2023-02-17T08:01:36.850Z,28.73
2023-02-17T08:02:40.097Z,36.50
2023-02-17T08:03:42.912Z,30.92
2023-02-17T08:04:45.227Z,30.45
2023-02-17T08:05:51.132Z,32.42
2023-02-17T08:06:53.946Z,32.35
2023-02-17T08:08:10.641Z,30.52
2023-02-17T08:09:30.979Z,33.83
2023-02-17T08:10:51.182Z,33.45
2023-02-17T08:12:11.642Z,28.63
2023-02-17T08:13:20.208Z,30.73
2023-02-17T08:14:24.157Z,28.83
2023-02-17T08:15:26.048Z,30.77
2023-02-17T08:16:29.326Z,34.08
2023-02-17T08:17:31.165Z,28.90
2023-02-17T08:18:36.793Z,26.58
2023-02-17T08:19:48.012Z,27.75
2023-02-17T08:20:52.309Z,30.38
2023-02-17T08:21:55.275Z,29.13
2023-02-17T08:22:58.058Z,28.92
2023-02-17T08:24:00.862Z,31.70
2023-02-17T08:25:05.928Z,27.52
2023-02-17T08:26:08.904Z,36.13
2023-02-17T08:27:10.922Z,32.17
2023-02-17T08:28:14.540Z,27.40
2023-02-17T08:29:18.825Z,36.53
2023-02-17T08:30:21.861Z,26.48
2023-02-17T08:31:26.284Z,25.10
2023-02-17T08:32:29.253Z,26.27
2023-02-17T08:33:32.004Z,28.85
2023-02-17T08:34:35.383Z,25.75
2023-02-17T08:35:38.177Z,26.23
2023-02-17T08:36:40.254Z,24.75
2023-02-17T08:37:43.222Z,28.70
2023-02-17T08:38:48.495Z,27.85
2023-02-17T08:39:51.293Z,30.27
2023-02-17T08:40:54.079Z,23.13
2023-02-17T08:41:55.980Z,26.42
2023-02-17T08:42:58.849Z,30.73
2023-02-17T08:44:02.738Z,27.38
2023-02-17T08:45:06.531Z,29.05
2023-02-17T08:46:09.097Z,26.88
2023-02-17T08:47:12.734Z,23.65
2023-02-17T08:48:15.676Z,24.17
2023-02-17T08:49:18.775Z,23.00
2023-02-17T08:50:23.934Z,24.88
2023-02-17T08:51:26.260Z,26.33
2023-02-17T08:52:29.114Z,25.50
2023-02-17T08:53:32.376Z,26.95
2023-02-17T08:54:34.206Z,23.80
2023-02-17T08:55:48.664Z,25.00
2023-02-17T08:56:52.067Z,24.92
2023-02-17T08:57:54.983Z,23.85
2023-02-17T08:58:57.029Z,23.88
2023-02-17T09:00:00.163Z,26.23
2023-02-17T09:01:02.155Z,24.55
2023-02-17T09:02:05.151Z,27.08
2023-02-17T09:03:07.581Z,24.20
2023-02-17T09:04:12.460Z,25.48
2023-02-17T09:05:15.853Z,24.10
2023-02-17T09:06:21.319Z,24.42
2023-02-17T09:07:24.172Z,25.60
2023-02-17T09:08:26.986Z,24.15
2023-02-17T09:09:30.077Z,27.10
2023-02-17T09:10:31.970Z,23.48
2023-02-17T09:11:34.746Z,25.02
2023-02-17T09:12:37.590Z,27.50
2023-02-17T09:13:39.383Z,25.48
2023-02-17T09:14:42.185Z,28.40
2023-02-17T09:15:44.117Z,24.65
2023-02-17T09:16:46.873Z,24.27
2023-02-17T09:17:49.734Z,23.40
2023-02-17T09:18:51.913Z,25.67
2023-02-17T09:19:54.982Z,28.90
2023-02-17T09:20:58.386Z,25.80
2023-02-17T09:22:02.670Z,26.13
2023-02-17T09:23:04.442Z,25.83
2023-02-17T09:24:07.660Z,26.02
2023-02-17T09:25:11.358Z,27.42
2023-02-17T09:26:16.408Z,27.35
2023-02-17T09:27:18.262Z,27.50
2023-02-17T09:28:21.293Z,27.77
2023-02-17T09:29:24.083Z,28.10
2023-02-17T09:30:26.123Z,27.92
2023-02-17T09:31:30.772Z,35.80
2023-02-17T09:32:33.732Z,27.00
2023-02-17T09:33:35.517Z,31.55
2023-02-17T09:34:38.871Z,28.25
2023-02-17T09:35:40.802Z,29.55
2023-02-17T09:36:44.106Z,29.05
2023-02-17T09:37:48.342Z,32.03
2023-02-17T09:38:51.149Z,26.35
2023-02-17T09:39:54.113Z,28.10
2023-02-17T09:41:00.624Z,30.45
2023-02-17T09:42:03.531Z,28.15
2023-02-17T09:43:05.421Z,29.45
2023-02-17T09:44:17.768Z,29.70
2023-02-17T09:45:22.477Z,28.92
2023-02-17T09:46:28.833Z,26.45
2023-02-17T09:47:35.407Z,29.70
2023-02-17T09:48:38.227Z,26.85
2023-02-17T09:49:42.775Z,25.75
2023-02-17T09:50:49.898Z,30.05
2023-02-17T09:51:55.416Z,26.83
2023-02-17T09:53:03.740Z,27.20
2023-02-17T09:54:10.789Z,26.63
2023-02-17T09:55:15.855Z,26.35
2023-02-17T09:56:23.413Z,26.75
2023-02-17T09:57:29.313Z,25.98
2023-02-17T09:58:35.648Z,23.10
2023-02-17T09:59:39.889Z,25.20
2023-02-17T10:00:45.753Z,31.77
2023-02-17T10:01:49.817Z,22.60
2023-02-17T10:02:57.789Z,24.83
2023-02-17T10:04:05.997Z,29.02
2023-02-17T10:05:12.379Z,25.08
2023-02-17T10:06:16.280Z,25.92
2023-02-17T10:07:22.854Z,24.52
2023-02-17T10:08:28.817Z,27.92
2023-02-17T10:09:34.999Z,23.83
2023-02-17T10:10:40.889Z,25.33
2023-02-17T10:11:45.831Z,23.85
2023-02-17T10:12:51.892Z,26.85
2023-02-17T10:13:58.490Z,25.95
2023-02-17T10:15:06.909Z,28.35
2023-02-17T10:16:21.680Z,26.95
2023-02-17T10:17:30.101Z,41.72
2023-02-17T10:18:36.039Z,32.95
2023-02-17T10:19:43.625Z,26.60
2023-02-17T10:20:50.644Z,29.25
2023-02-17T10:21:58.922Z,25.35
2023-02-17T10:23:05.288Z,25.88
2023-02-17T10:24:09.682Z,25.13
2023-02-17T10:25:15.423Z,22.35
2023-02-17T10:26:25.822Z,23.40
2023-02-17T10:27:33.591Z,23.63
2023-02-17T10:28:45.561Z,23.05
2023-02-17T10:29:52.594Z,28.75
2023-02-17T10:31:01.452Z,23.20
2023-02-17T10:32:16.633Z,24.52
2023-02-17T10:33:25.147Z,20.60
2023-02-17T10:34:35.300Z,25.33
2023-02-17T10:35:48.632Z,23.15
2023-02-17T10:36:58.414Z,21.98
2023-02-17T10:38:05.081Z,26.00
2023-02-17T10:39:14.821Z,28.83
2023-02-17T10:40:21.378Z,26.88
2023-02-17T10:41:27.118Z,30.90
2023-02-17T10:42:32.379Z,25.33
2023-02-17T10:43:34.766Z,21.88
2023-02-17T10:44:39.146Z,24.45
2023-02-17T10:45:42.981Z,33.63
2023-02-17T10:46:48.471Z,31.00
2023-02-17T10:47:59.310Z,28.75
2023-02-17T10:49:01.561Z,23.75
2023-02-17T10:50:04.790Z,25.02
2023-02-17T10:51:08.356Z,24.98
2023-02-17T10:52:13.293Z,23.17
2023-02-17T10:53:19.092Z,25.85
2023-02-17T10:54:30.078Z,26.73
2023-02-17T10:55:36.584Z,24.20
2023-02-17T10:56:44.141Z,22.88
2023-02-17T10:57:48.511Z,26.88
2023-02-17T10:58:55.385Z,26.52
2023-02-17T10:59:58.410Z,25.45
2023-02-17T11:01:02.553Z,28.23
2023-02-17T11:02:21.528Z,24.00
2023-02-17T11:03:27.440Z,27.23
2023-02-17T11:04:42.201Z,20.52
2023-02-17T11:05:45.302Z,22.85
2023-02-17T11:06:49.454Z,24.80
2023-02-17T11:07:57.055Z,22.33
2023-02-17T11:09:00.381Z,23.35
2023-02-17T11:10:21.408Z,21.17
2023-02-17T11:11:25.620Z,19.30
2023-02-17T11:12:30.733Z,20.00
2023-02-17T11:13:37.505Z,21.08
2023-02-17T11:14:45.502Z,20.80
2023-02-17T11:15:48.958Z,20.17
2023-02-17T11:16:59.129Z,18.67
2023-02-17T11:18:03.161Z,22.00
2023-02-17T11:19:05.884Z,20.75
2023-02-17T11:20:28.702Z,18.75
2023-02-17T11:21:33.894Z,18.60
2023-02-17T11:22:40.980Z,21.38
2023-02-17T11:23:51.061Z,19.95
2023-02-17T11:24:59.515Z,19.30
2023-02-17T11:26:10.682Z,18.80
2023-02-17T11:27:13.632Z,19.70
2023-02-17T11:28:24.939Z,24.73
2023-02-17T11:29:28.234Z,18.10
2023-02-17T11:30:32.265Z,21.48
2023-02-17T11:31:35.602Z,21.42
2023-02-17T11:32:38.393Z,20.42
2023-02-17T11:33:41.470Z,25.90
2023-02-17T11:34:44.538Z,19.35
2023-02-17T11:35:51.555Z,18.48
2023-02-17T11:37:01.607Z,23.50
2023-02-17T11:38:12.921Z,21.80
2023-02-17T11:39:20.381Z,17.63
2023-02-17T11:40:27.309Z,18.17
2023-02-17T11:41:40.940Z,18.27
2023-02-17T11:42:43.729Z,20.25
2023-02-17T11:43:55.236Z,19.15
2023-02-17T11:44:58.950Z,19.98
2023-02-17T11:46:21.746Z,16.90
2023-02-17T11:47:32.009Z,19.17
2023-02-17T11:48:58.196Z,18.48
2023-02-17T11:50:10.300Z,16.58
2023-02-17T11:51:18.783Z,17.40
2023-02-17T11:52:31.253Z,16.98
2023-02-17T11:53:46.597Z,23.88
2023-02-17T11:55:02.647Z,18.05
2023-02-17T11:56:13.981Z,17.25
2023-02-17T11:57:26.672Z,20.50
2023-02-17T11:58:39.372Z,17.77
2023-02-17T11:59:53.290Z,18.77
2023-02-17T12:01:01.834Z,17.23
2023-02-17T12:02:19.308Z,19.73
2023-02-17T12:03:36.819Z,21.20
2023-02-17T12:04:43.557Z,17.23
2023-02-17T12:05:54.474Z,17.80
2023-02-17T12:07:35.784Z,17.75
2023-02-17T12:08:47.771Z,16.90
2023-02-17T12:09:56.374Z,23.13
2023-02-17T12:11:06.359Z,19.58
2023-02-17T12:12:15.209Z,16.98
2023-02-17T12:13:28.101Z,17.92
2023-02-17T12:14:47.155Z,16.52
2023-02-17T12:16:01.961Z,18.92
2023-02-17T12:17:07.179Z,17.00
2023-02-17T12:18:23.780Z,16.27
2023-02-17T12:19:37.185Z,16.50
2023-02-17T12:20:47.365Z,19.58
2023-02-17T12:21:55.778Z,23.27
2023-02-17T12:23:07.920Z,18.30
2023-02-17T12:24:49.381Z,20.00
2023-02-17T12:25:55.419Z,18.17
2023-02-17T12:27:06.471Z,15.98
2023-02-17T12:28:37.218Z,17.20
2023-02-17T12:29:56.519Z,18.90
2023-02-17T12:31:02.914Z,16.45
2023-02-17T12:32:19.836Z,17.42
2023-02-17T12:33:33.013Z,17.67
2023-02-17T12:34:37.993Z,17.95
2023-02-17T12:35:45.965Z,15.38
2023-02-17T12:36:49.286Z,15.63
2023-02-17T12:37:55.244Z,17.85
2023-02-17T12:38:59.997Z,18.10
2023-02-17T12:40:06.477Z,19.05
2023-02-17T12:41:12.037Z,15.85
2023-02-17T12:42:17.641Z,17.60
2023-02-17T12:43:26.528Z,19.27
2023-02-17T12:44:33.071Z,17.25
2023-02-17T12:45:38.582Z,19.55
2023-02-17T12:46:44.364Z,19.42
2023-02-17T12:47:54.614Z,17.77
2023-02-17T12:49:00.835Z,20.08
2023-02-17T12:50:06.705Z,19.77
2023-02-17T12:51:12.145Z,15.45
2023-02-17T12:52:19.054Z,19.02
2023-02-17T12:53:28.166Z,17.60
2023-02-17T12:54:35.163Z,17.10
2023-02-17T12:55:48.201Z,18.38
2023-02-17T12:56:58.092Z,16.83
2023-02-17T12:58:04.153Z,16.73
2023-02-17T12:59:14.002Z,17.90
2023-02-17T13:00:21.517Z,19.50
2023-02-17T13:01:26.379Z,15.98
2023-02-17T13:02:30.767Z,18.27
2023-02-17T13:03:33.392Z,18.05
2023-02-17T13:04:37.011Z,22.25
2023-02-17T13:05:41.054Z,16.58
2023-02-17T13:06:46.452Z,22.75
2023-02-17T13:07:52.258Z,16.13
2023-02-17T13:08:57.359Z,19.02
2023-02-17T13:10:00.483Z,21.15
2023-02-17T13:11:05.592Z,21.02
2023-02-17T13:12:31.317Z,19.48
2023-02-17T13:13:35.279Z,18.67
2023-02-17T13:14:44.673Z,20.60
2023-02-17T13:15:48.811Z,19.52
2023-02-17T13:16:50.722Z,23.52
2023-02-17T13:17:55.422Z,18.58
2023-02-17T13:19:08.710Z,18.95
2023-02-17T13:20:51.806Z,18.52
2023-02-17T13:21:55.891Z,17.50
2023-02-17T13:23:09.105Z,18.38
2023-02-17T13:24:15.938Z,18.02
2023-02-17T13:25:28.588Z,18.05
2023-02-17T13:26:33.434Z,22.67
2023-02-17T13:27:36.417Z,23.05
2023-02-17T13:28:40.345Z,20.75
2023-02-17T13:30:03.863Z,19.50
2023-02-17T13:31:13.044Z,18.33
2023-02-17T13:32:16.058Z,18.45
2023-02-17T13:33:28.614Z,20.88
2023-02-17T13:34:34.201Z,19.77
2023-02-17T13:35:37.894Z,16.63
2023-02-17T13:36:39.714Z,16.77
2023-02-17T13:37:44.848Z,22.30
2023-02-17T13:38:56.429Z,22.30
2023-02-17T13:39:59.572Z,16.58
2023-02-17T13:41:04.425Z,18.15
2023-02-17T13:42:33.644Z,18.15
2023-02-17T13:43:42.541Z,17.83
2023-02-17T13:44:46.382Z,19.00
2023-02-17T13:45:51.045Z,17.77
2023-02-17T13:46:58.392Z,14.93
2023-02-17T13:48:13.340Z,18.70
2023-02-17T13:49:22.166Z,18.83
2023-02-17T13:50:31.739Z,17.55
2023-02-17T13:51:35.430Z,14.50
2023-02-17T13:52:37.224Z,17.52
2023-02-17T13:53:41.672Z,18.58
2023-02-17T13:54:53.252Z,17.05
2023-02-17T13:55:57.982Z,15.30